createdAt,value
2022-10-11T00:00:07.459Z,92.92
2022-10-11T00:02:35.366Z,92.89
2022-10-11T00:05:04.827Z,92.81
2022-10-11T00:07:32.598Z,92.70
2022-10-11T00:10:00.521Z,92.73
2022-10-11T00:12:28.297Z,92.75
2022-10-11T00:14:56.021Z,92.55
2022-10-11T00:17:24.008Z,92.59
2022-10-11T00:19:51.764Z,93.14
2022-10-11T00:22:20.874Z,93.13
2022-10-11T00:24:48.579Z,93.46
2022-10-11T00:27:16.415Z,93.40
2022-10-11T00:29:44.183Z,93.54
2022-10-11T00:32:12.012Z,94.42
2022-10-11T00:34:39.774Z,94.04
2022-10-11T00:37:07.528Z,93.87
2022-10-11T00:39:36.655Z,97.07
2022-10-11T00:42:05.106Z,97.53
2022-10-11T00:44:34.022Z,97.58
2022-10-11T00:47:04.118Z,96.57
2022-10-11T00:49:36.819Z,90.11
2022-10-11T00:52:08.198Z,88.12
2022-10-11T00:54:42.791Z,86.06
2022-10-11T00:57:15.095Z,84.93
2022-10-11T00:59:46.277Z,83.77
2022-10-11T01:02:15.387Z,85.19
2022-10-11T01:04:43.734Z,83.80
2022-10-11T01:07:12.751Z,82.86
2022-10-11T01:09:41.842Z,83.02
2022-10-11T01:12:16.751Z,82.34
2022-10-11T01:15:00.885Z,80.70
2022-10-11T01:17:37.905Z,78.63
2022-10-11T01:20:26.664Z,78.49
2022-10-11T01:23:29.642Z,78.80
2022-10-11T01:26:14.103Z,78.42
2022-10-11T01:28:50.166Z,78.57
2022-10-11T01:31:25.065Z,77.69
2022-10-11T01:33:56.679Z,78.81
2022-10-11T01:36:32.564Z,78.94
2022-10-11T01:39:05.296Z,79.46
2022-10-11T01:41:48.229Z,78.67
2022-10-11T01:44:16.665Z,78.99
2022-10-11T01:46:45.777Z,78.61
2022-10-11T01:49:13.633Z,78.23
2022-10-11T01:51:47.132Z,76.83
2022-10-11T01:54:56.666Z,76.99
2022-10-11T01:57:49.770Z,77.23
2022-10-11T02:00:20.581Z,76.42
2022-10-11T02:03:06.571Z,75.98
2022-10-11T02:05:40.082Z,75.79
2022-10-11T02:08:15.121Z,76.42
2022-10-11T02:10:47.366Z,78.71
2022-10-11T02:13:22.529Z,80.65
2022-10-11T02:15:51.573Z,81.90
2022-10-11T02:18:23.921Z,83.38
2022-10-11T02:20:52.909Z,84.90
2022-10-11T02:23:26.517Z,85.33
2022-10-11T02:25:56.098Z,85.80
2022-10-11T02:28:27.678Z,87.30
2022-10-11T02:30:57.695Z,87.95
2022-10-11T02:33:32.696Z,89.30
2022-10-11T02:36:07.428Z,89.87
2022-10-11T02:38:41.178Z,91.10
2022-10-11T02:41:16.273Z,91.73
2022-10-11T02:43:49.082Z,91.07
2022-10-11T02:46:17.828Z,90.43
2022-10-11T02:48:46.998Z,92.43
2022-10-11T02:51:15.394Z,91.67
2022-10-11T02:53:43.151Z,91.29
2022-10-11T02:56:11.102Z,90.53
2022-10-11T02:58:38.871Z,90.68
2022-10-11T03:01:06.969Z,90.31
2022-10-11T03:03:34.770Z,90.72
2022-10-11T03:06:05.503Z,91.32
2022-10-11T03:08:33.461Z,92.60
2022-10-11T03:11:01.255Z,93.10
2022-10-11T03:13:29.079Z,93.51
2022-10-11T03:16:03.402Z,92.95
2022-10-11T03:18:31.941Z,93.66
2022-10-11T03:20:59.722Z,93.87
2022-10-11T03:23:28.824Z,94.03
2022-10-11T03:25:56.729Z,93.96
2022-10-11T03:28:24.503Z,93.09
2022-10-11T03:30:52.492Z,92.26
2022-10-11T03:33:20.804Z,93.22
2022-10-11T03:35:49.598Z,93.00
2022-10-11T03:38:19.944Z,93.00
2022-10-11T03:40:49.834Z,92.49
2022-10-11T03:43:18.370Z,92.98
2022-10-11T03:45:46.144Z,93.13
2022-10-11T03:48:13.969Z,93.01
2022-10-11T03:50:41.727Z,92.11
2022-10-11T03:53:09.612Z,92.32
2022-10-11T03:55:40.067Z,92.25
2022-10-11T03:58:09.386Z,92.03
2022-10-11T04:00:37.116Z,92.12
2022-10-11T04:03:04.940Z,91.99
2022-10-11T04:05:32.721Z,91.99
2022-10-11T04:08:00.454Z,92.44
2022-10-11T04:10:28.309Z,92.22
2022-10-11T04:12:56.039Z,92.43
2022-10-11T04:15:25.136Z,92.40
2022-10-11T04:17:52.881Z,92.41
2022-10-11T04:20:20.685Z,92.72
2022-10-11T04:22:48.422Z,93.40
2022-10-11T04:25:16.339Z,93.87
2022-10-11T04:27:44.055Z,94.04
2022-10-11T04:30:13.446Z,94.14
2022-10-11T04:32:42.352Z,93.59
2022-10-11T04:35:10.609Z,93.80
2022-10-11T04:37:38.794Z,94.49
2022-10-11T04:40:07.949Z,93.67
2022-10-11T04:42:35.922Z,93.67
2022-10-11T04:45:03.710Z,94.06
2022-10-11T04:47:31.460Z,94.21
2022-10-11T04:50:00.573Z,94.70
2022-10-11T04:52:28.295Z,94.74
2022-10-11T04:54:56.037Z,94.18
2022-10-11T04:57:23.793Z,93.58
2022-10-11T04:59:51.544Z,93.71
2022-10-11T05:02:19.598Z,94.22
2022-10-11T05:04:47.921Z,94.05
2022-10-11T05:07:16.994Z,93.89
2022-10-11T05:09:44.728Z,92.93
2022-10-11T05:12:12.467Z,92.88
2022-10-11T05:14:40.235Z,92.85
2022-10-11T05:17:08.001Z,92.41
2022-10-11T05:19:36.750Z,92.51
2022-10-11T05:22:04.988Z,92.28
2022-10-11T05:24:34.277Z,92.35
2022-10-11T05:27:03.574Z,93.40
2022-10-11T05:29:31.647Z,94.60
2022-10-11T05:31:59.492Z,95.09
2022-10-11T05:34:27.256Z,94.70
2022-10-11T05:36:56.382Z,93.45
2022-10-11T05:39:24.164Z,94.25
2022-10-11T05:41:53.272Z,93.78
2022-10-11T05:44:20.993Z,93.94
2022-10-11T05:46:48.748Z,92.85
2022-10-11T05:49:16.509Z,92.11
2022-10-11T05:51:44.442Z,93.19
2022-10-11T05:54:12.487Z,92.81
2022-10-11T05:56:40.247Z,92.30
2022-10-11T05:59:09.347Z,92.19
2022-10-11T06:01:37.144Z,92.21
2022-10-11T06:04:05.387Z,92.71
2022-10-11T06:06:33.159Z,92.88
2022-10-11T06:09:00.905Z,93.34
2022-10-11T06:11:29.015Z,93.18
2022-10-11T06:13:58.972Z,92.84
2022-10-11T06:16:28.659Z,92.64
2022-10-11T06:18:57.326Z,93.03
2022-10-11T06:21:25.864Z,93.12
2022-10-11T06:24:00.870Z,92.86
2022-10-11T06:26:29.798Z,92.30
2022-10-11T06:28:57.624Z,91.51
2022-10-11T06:31:25.608Z,89.58
2022-10-11T06:33:54.735Z,87.23
2022-10-11T06:36:22.868Z,84.67
2022-10-11T06:38:52.570Z,82.81
2022-10-11T06:41:24.575Z,82.91
2022-10-11T06:43:52.577Z,80.70
2022-10-11T06:46:22.095Z,79.47
2022-10-11T06:48:50.929Z,76.69
2022-10-11T06:51:22.109Z,75.46
2022-10-11T06:53:50.691Z,74.27
2022-10-11T06:56:19.187Z,72.45
2022-10-11T06:58:47.296Z,73.06
2022-10-11T07:01:18.930Z,70.10
2022-10-11T07:03:47.208Z,67.84
2022-10-11T07:06:17.504Z,65.36
2022-10-11T07:08:47.395Z,63.52
2022-10-11T07:11:18.043Z,62.68
2022-10-11T07:13:50.825Z,60.56
2022-10-11T07:16:19.646Z,58.07
2022-10-11T07:18:48.092Z,57.24
2022-10-11T07:21:16.955Z,55.89
2022-10-11T07:23:46.085Z,54.18
2022-10-11T07:26:14.228Z,53.95
2022-10-11T07:28:42.915Z,52.91
2022-10-11T07:31:13.104Z,50.45
2022-10-11T07:33:40.883Z,48.91
2022-10-11T07:36:09.739Z,49.92
2022-10-11T07:38:40.241Z,49.04
2022-10-11T07:41:10.286Z,48.88
2022-10-11T07:43:38.613Z,47.12
2022-10-11T07:46:07.286Z,47.31
2022-10-11T07:48:36.870Z,45.69
2022-10-11T07:51:06.654Z,46.71
2022-10-11T07:53:39.388Z,46.00
2022-10-11T07:56:09.446Z,45.18
2022-10-11T07:58:37.352Z,44.96
2022-10-11T08:01:05.908Z,44.36
2022-10-11T08:03:33.708Z,43.58
2022-10-11T08:06:03.045Z,44.03
2022-10-11T08:08:31.079Z,42.77
2022-10-11T08:10:59.151Z,41.61
2022-10-11T08:13:28.404Z,42.02
2022-10-11T08:15:56.344Z,42.08
2022-10-11T08:18:24.184Z,41.90
2022-10-11T08:20:52.011Z,40.76
2022-10-11T08:23:20.093Z,41.59
2022-10-11T08:25:48.922Z,40.35
2022-10-11T08:28:17.644Z,39.21
2022-10-11T08:30:51.562Z,38.04
2022-10-11T08:33:19.430Z,39.32
2022-10-11T08:35:47.344Z,38.56
2022-10-11T08:38:15.393Z,38.38
2022-10-11T08:40:48.110Z,38.68
2022-10-11T08:43:27.951Z,38.97
2022-10-11T08:46:00.079Z,37.35
2022-10-11T08:48:34.454Z,37.43
2022-10-11T08:51:06.444Z,38.67
2022-10-11T08:53:45.536Z,38.14
2022-10-11T08:56:14.780Z,38.58
2022-10-11T08:58:48.407Z,38.06
2022-10-11T09:01:21.473Z,37.47
2022-10-11T09:03:50.068Z,38.06
2022-10-11T09:06:27.054Z,39.09
2022-10-11T09:09:06.255Z,39.44
2022-10-11T09:11:47.317Z,38.02
2022-10-11T09:14:40.692Z,38.45
2022-10-11T09:17:17.368Z,37.51
2022-10-11T09:20:20.917Z,36.84
2022-10-11T09:22:58.996Z,37.31
2022-10-11T09:25:30.651Z,36.90
2022-10-11T09:28:14.237Z,37.56
2022-10-11T09:30:48.700Z,36.16
2022-10-11T09:33:21.467Z,36.52
2022-10-11T09:35:51.383Z,35.33
2022-10-11T09:38:36.012Z,35.60
2022-10-11T09:41:12.930Z,35.83
2022-10-11T09:43:40.906Z,36.79
2022-10-11T09:46:20.881Z,37.46
2022-10-11T09:48:51.469Z,36.43
2022-10-11T09:51:22.389Z,36.07
2022-10-11T09:53:53.370Z,36.32
2022-10-11T09:56:22.259Z,35.54
2022-10-11T09:58:50.294Z,37.23
2022-10-11T10:01:25.280Z,36.48
2022-10-11T10:04:08.559Z,36.22
2022-10-11T10:06:36.586Z,36.22
2022-10-11T10:09:27.795Z,35.46
2022-10-11T10:11:56.172Z,35.72
2022-10-11T10:14:27.753Z,34.33
2022-10-11T10:17:04.874Z,34.83
2022-10-11T10:19:44.923Z,35.07
2022-10-11T10:22:19.618Z,36.73
2022-10-11T10:24:49.049Z,37.21
2022-10-11T10:27:21.283Z,38.39
2022-10-11T10:30:13.819Z,39.41
2022-10-11T10:32:49.864Z,38.40
2022-10-11T10:35:31.516Z,39.65
2022-10-11T10:38:08.768Z,37.65
2022-10-11T10:40:42.773Z,40.90
2022-10-11T10:43:19.119Z,37.68
2022-10-11T10:46:17.243Z,40.21
2022-10-11T10:51:54.191Z,38.61
2022-10-11T10:54:34.229Z,36.42
2022-10-11T10:57:05.508Z,39.94
2022-10-11T10:59:47.042Z,40.47
2022-10-11T11:02:39.603Z,42.00
2022-10-11T11:05:18.780Z,40.19
2022-10-11T11:07:52.885Z,42.98
2022-10-11T11:10:23.944Z,46.55
2022-10-11T11:12:58.356Z,46.98
2022-10-11T11:15:36.953Z,44.03
2022-10-11T11:18:20.301Z,41.34
2022-10-11T11:21:00.813Z,40.01
2022-10-11T11:23:40.955Z,41.58
2022-10-11T11:26:16.831Z,38.53
2022-10-11T11:29:12.769Z,40.60
2022-10-11T11:31:50.277Z,41.11
2022-10-11T11:34:24.215Z,41.24
2022-10-11T11:36:56.487Z,40.39
2022-10-11T11:39:30.965Z,40.38
2022-10-11T11:42:02.700Z,39.82
2022-10-11T11:44:32.272Z,41.51
2022-10-11T11:47:04.403Z,39.68
2022-10-11T11:49:36.759Z,39.36
2022-10-11T11:52:06.411Z,38.74
2022-10-11T11:54:48.837Z,41.87
2022-10-11T11:57:24.760Z,43.69
2022-10-11T12:00:00.451Z,43.66
2022-10-11T12:02:43.756Z,43.44
2022-10-11T12:05:13.765Z,43.73
2022-10-11T12:07:55.121Z,43.86
2022-10-11T12:10:29.634Z,42.91
2022-10-11T12:13:09.296Z,43.26
2022-10-11T12:15:37.298Z,43.14
2022-10-11T12:18:15.325Z,44.45
2022-10-11T12:20:44.807Z,43.95
2022-10-11T12:23:43.796Z,43.85
2022-10-11T12:26:33.042Z,42.54
2022-10-11T12:29:04.669Z,41.66
2022-10-11T12:31:33.877Z,41.12
2022-10-11T12:34:21.614Z,42.69
2022-10-11T12:36:50.334Z,42.74
2022-10-11T12:39:52.700Z,42.47
2022-10-11T12:42:31.634Z,44.25
2022-10-11T12:45:34.772Z,43.72
2022-10-11T12:48:21.540Z,44.03
2022-10-11T12:51:03.187Z,43.68
2022-10-11T12:54:02.488Z,42.94
2022-10-11T12:56:48.957Z,43.26
2022-10-11T12:59:20.283Z,46.90
2022-10-11T13:01:54.146Z,44.23
2022-10-11T13:04:26.371Z,49.07
2022-10-11T13:06:56.640Z,48.13
2022-10-11T13:09:29.808Z,45.95
2022-10-11T13:12:04.052Z,47.89
2022-10-11T13:14:37.971Z,48.68
2022-10-11T13:17:09.549Z,48.57
2022-10-11T13:22:22.874Z,48.77
2022-10-11T13:24:51.063Z,51.30
2022-10-11T13:27:21.443Z,50.21
2022-10-11T13:29:52.718Z,50.95
2022-10-11T13:32:23.949Z,50.74
2022-10-11T13:37:30.885Z,49.90
2022-10-11T13:39:59.769Z,49.67
2022-10-11T13:42:31.680Z,52.22
2022-10-11T13:45:01.461Z,50.81
2022-10-11T13:47:31.399Z,50.09
2022-10-11T13:50:09.205Z,49.90
2022-10-11T13:52:37.054Z,49.04
2022-10-11T13:55:22.849Z,50.68
2022-10-11T13:57:52.198Z,50.70
2022-10-11T14:00:26.224Z,51.45
2022-10-11T14:02:58.686Z,51.58
2022-10-11T14:05:30.750Z,52.19
2022-10-11T14:08:00.729Z,52.84
2022-10-11T14:10:29.425Z,53.97
2022-10-11T14:13:03.224Z,54.76
2022-10-11T14:15:34.531Z,55.35
2022-10-11T14:18:03.982Z,54.39
2022-10-11T14:20:38.643Z,54.04
2022-10-11T14:23:07.212Z,53.41
2022-10-11T14:25:37.916Z,54.64
2022-10-11T14:28:06.545Z,54.79
2022-10-11T14:30:35.678Z,55.61
2022-10-11T14:33:03.574Z,55.17
2022-10-11T14:35:35.491Z,56.06
2022-10-11T14:38:03.242Z,57.07
2022-10-11T14:40:32.638Z,57.22
2022-10-11T14:43:00.432Z,58.33
2022-10-11T14:45:28.479Z,57.26
2022-10-11T14:47:57.956Z,56.96
2022-10-11T14:50:40.363Z,57.71
2022-10-11T14:53:09.843Z,58.54
2022-10-11T14:55:38.926Z,59.14
2022-10-11T14:58:08.145Z,58.79
2022-10-11T15:00:36.350Z,58.66
2022-10-11T15:03:09.417Z,58.93
2022-10-11T15:05:37.732Z,59.44
2022-10-11T15:08:07.185Z,59.90
2022-10-11T15:10:37.226Z,60.28
2022-10-11T15:13:06.972Z,59.73
2022-10-11T15:15:36.772Z,59.77
2022-10-11T15:18:08.128Z,59.88
2022-10-11T15:20:38.626Z,59.57
2022-10-11T15:23:07.766Z,59.37
2022-10-11T15:25:35.676Z,59.51
2022-10-11T15:28:03.425Z,59.37
2022-10-11T15:30:38.465Z,59.33
2022-10-11T15:33:10.768Z,59.63
2022-10-11T15:35:38.622Z,59.46
2022-10-11T15:38:06.380Z,59.73
2022-10-11T15:40:36.884Z,60.82
2022-10-11T15:43:05.429Z,61.27
2022-10-11T15:45:33.310Z,60.25
2022-10-11T15:48:01.194Z,60.50
2022-10-11T15:50:35.149Z,61.28
2022-10-11T15:53:04.208Z,61.54
2022-10-11T15:55:32.911Z,61.48
2022-10-11T15:58:01.417Z,61.25
2022-10-11T16:00:29.739Z,61.49
2022-10-11T16:02:58.965Z,62.14
2022-10-11T16:05:28.695Z,61.89
2022-10-11T16:07:57.847Z,62.36
2022-10-11T16:10:25.765Z,62.88
2022-10-11T16:12:53.637Z,62.81
2022-10-11T16:15:21.403Z,62.99
2022-10-11T16:17:49.801Z,63.16
2022-10-11T16:20:21.955Z,63.65
2022-10-11T16:22:50.139Z,63.03
2022-10-11T16:25:20.074Z,63.60
2022-10-11T16:27:48.031Z,63.75
2022-10-11T16:30:17.308Z,63.82
2022-10-11T16:32:45.016Z,63.74
2022-10-11T16:35:14.212Z,64.47
2022-10-11T16:37:42.092Z,64.46
2022-10-11T16:40:11.719Z,64.85
2022-10-11T16:42:41.206Z,64.97
2022-10-11T16:45:12.917Z,65.17
2022-10-11T16:47:41.300Z,65.64
2022-10-11T16:50:10.740Z,66.25
2022-10-11T16:52:38.582Z,66.35
2022-10-11T16:55:07.534Z,66.72
2022-10-11T16:57:37.666Z,66.78
2022-10-11T17:00:09.542Z,68.18
2022-10-11T17:02:37.664Z,68.14
2022-10-11T17:05:06.467Z,68.05
2022-10-11T17:07:34.359Z,68.10
2022-10-11T17:10:02.447Z,68.40
2022-10-11T17:12:31.875Z,68.65
2022-10-11T17:14:59.743Z,68.31
2022-10-11T17:17:29.586Z,68.70
2022-10-11T17:19:57.407Z,69.04
2022-10-11T17:22:25.561Z,69.31
2022-10-11T17:24:53.346Z,69.07
2022-10-11T17:27:21.156Z,69.40
2022-10-11T17:29:48.956Z,69.42
2022-10-11T17:32:16.859Z,69.30
2022-10-11T17:34:46.012Z,69.22
2022-10-11T17:37:14.026Z,69.15
2022-10-11T17:39:41.859Z,68.87
2022-10-11T17:42:09.648Z,69.29
2022-10-11T17:44:37.565Z,69.98
2022-10-11T17:47:05.513Z,70.27
2022-10-11T17:49:33.386Z,70.56
2022-10-11T17:52:02.645Z,70.59
2022-10-11T17:54:30.441Z,70.43
2022-10-11T17:56:58.828Z,70.92
2022-10-11T17:59:28.659Z,70.99
2022-10-11T18:01:56.540Z,71.04
2022-10-11T18:04:29.481Z,71.27
2022-10-11T18:06:57.344Z,71.17
2022-10-11T18:09:27.173Z,71.82
2022-10-11T18:11:55.008Z,72.27
2022-10-11T18:14:22.805Z,72.51
2022-10-11T18:16:50.831Z,73.22
2022-10-11T18:19:18.721Z,73.80
2022-10-11T18:21:46.557Z,73.58
2022-10-11T18:24:16.773Z,74.05
2022-10-11T18:26:46.712Z,74.03
2022-10-11T18:29:14.930Z,74.16
2022-10-11T18:31:43.001Z,74.26
2022-10-11T18:34:13.809Z,74.42
2022-10-11T18:36:41.637Z,75.24
2022-10-11T18:39:12.838Z,75.68
2022-10-11T18:41:44.339Z,75.70
2022-10-11T18:44:15.630Z,75.84
2022-10-11T18:46:44.671Z,75.70
2022-10-11T18:49:13.411Z,75.78
2022-10-11T18:51:42.537Z,76.28
2022-10-11T18:54:15.232Z,77.00
2022-10-11T18:56:46.515Z,78.16
2022-10-11T18:59:15.735Z,77.48
2022-10-11T19:01:45.158Z,77.69
2022-10-11T19:04:15.874Z,77.52
2022-10-11T19:06:47.339Z,77.30
2022-10-11T19:09:21.307Z,77.06
2022-10-11T19:11:49.872Z,77.46
2022-10-11T19:14:21.122Z,77.87
2022-10-11T19:16:51.620Z,78.43
2022-10-11T19:19:21.141Z,78.20
2022-10-11T19:21:49.508Z,78.10
2022-10-11T19:24:18.586Z,78.35
2022-10-11T19:26:47.357Z,79.70
2022-10-11T19:29:18.664Z,79.56
2022-10-11T19:31:51.003Z,79.31
2022-10-11T19:34:19.482Z,78.84
2022-10-11T19:36:50.056Z,78.47
2022-10-11T19:39:19.508Z,78.57
2022-10-11T19:41:47.807Z,79.03
2022-10-11T19:44:16.296Z,79.40
2022-10-11T19:46:52.728Z,78.98
2022-10-11T19:49:24.907Z,80.41
2022-10-11T19:51:55.162Z,79.75
2022-10-11T19:54:23.212Z,79.78
2022-10-11T19:56:51.157Z,79.72
2022-10-11T19:59:20.349Z,80.27
2022-10-11T20:01:52.784Z,80.08
2022-10-11T20:04:47.482Z,80.33
2022-10-11T20:07:11.124Z,80.40
2022-10-11T20:09:38.964Z,80.34
2022-10-11T20:12:07.179Z,80.99
2022-10-11T20:14:35.057Z,81.73
2022-10-11T20:17:02.862Z,82.14
2022-10-11T20:19:32.058Z,82.21
2022-10-11T20:22:00.403Z,82.65
2022-10-11T20:24:32.191Z,82.97
2022-10-11T20:27:00.159Z,82.79
2022-10-11T20:29:29.233Z,82.99
2022-10-11T20:31:58.817Z,83.25
2022-10-11T20:34:27.569Z,83.35
2022-10-11T20:36:56.756Z,83.42
2022-10-11T20:39:24.770Z,83.50
2022-10-11T20:41:52.600Z,83.80
2022-10-11T20:44:20.416Z,84.07
2022-10-11T20:46:48.233Z,84.47
2022-10-11T20:49:16.020Z,84.42
2022-10-11T20:51:43.839Z,84.00
2022-10-11T20:54:13.430Z,84.37
2022-10-11T20:56:41.461Z,84.73
2022-10-11T20:59:09.500Z,85.18
2022-10-11T21:01:39.544Z,85.99
2022-10-11T21:04:18.509Z,85.90
2022-10-11T21:06:47.008Z,85.60
2022-10-11T21:09:17.070Z,85.59
2022-10-11T21:11:45.075Z,85.02
2022-10-11T21:14:12.872Z,85.11
2022-10-11T21:16:40.712Z,85.30
2022-10-11T21:19:08.634Z,85.27
2022-10-11T21:21:36.409Z,85.06
2022-10-11T21:24:04.235Z,84.79
2022-10-11T21:26:35.157Z,84.60
2022-10-11T21:29:04.086Z,84.24
2022-10-11T21:31:34.361Z,84.20
2022-10-11T21:34:02.641Z,83.94
2022-10-11T21:36:30.450Z,84.02
2022-10-11T21:38:58.218Z,83.93
2022-10-11T21:41:29.029Z,84.08
2022-10-11T21:43:59.291Z,83.80
2022-10-11T21:46:54.112Z,83.33
2022-10-11T21:49:16.373Z,83.20
2022-10-11T21:51:44.305Z,83.14
2022-10-11T21:54:12.704Z,83.47
2022-10-11T21:56:40.568Z,83.83
2022-10-11T21:59:12.276Z,84.37
2022-10-11T22:01:41.662Z,84.94
2022-10-11T22:04:11.892Z,85.53
2022-10-11T22:06:40.248Z,85.87
2022-10-11T22:09:08.546Z,86.17
2022-10-11T22:11:36.523Z,85.98
2022-10-11T22:14:04.887Z,86.04
2022-10-11T22:16:35.681Z,86.29
2022-10-11T22:19:03.746Z,87.27
2022-10-11T22:21:31.578Z,87.79
2022-10-11T22:23:59.555Z,87.57
2022-10-11T22:26:30.532Z,86.85
2022-10-11T22:28:58.755Z,87.04
2022-10-11T22:31:26.512Z,87.56
2022-10-11T22:33:56.281Z,87.42
2022-10-11T22:36:25.111Z,87.36
2022-10-11T22:38:53.784Z,87.09
2022-10-11T22:41:22.181Z,87.26
2022-10-11T22:43:49.957Z,87.74
2022-10-11T22:46:18.173Z,87.91
2022-10-11T22:48:45.988Z,87.78
2022-10-11T22:51:15.423Z,88.41
2022-10-11T22:53:43.168Z,89.02
2022-10-11T22:56:11.524Z,89.48
2022-10-11T22:58:39.303Z,88.89
2022-10-11T23:01:08.284Z,88.29
2022-10-11T23:03:36.173Z,87.67
2022-10-11T23:06:04.143Z,87.98
2022-10-11T23:08:33.451Z,88.05
2022-10-11T23:11:03.157Z,87.93
2022-10-11T23:13:30.931Z,88.40
2022-10-11T23:15:58.801Z,88.36
2022-10-11T23:18:26.616Z,88.62
2022-10-11T23:20:54.386Z,89.15
2022-10-11T23:23:22.168Z,89.21
2022-10-11T23:26:01.211Z,89.54
2022-10-11T23:28:29.075Z,89.03
2022-10-11T23:30:56.969Z,88.84
2022-10-11T23:33:24.821Z,88.73
2022-10-11T23:35:52.611Z,88.55
2022-10-11T23:38:20.607Z,88.76
2022-10-11T23:40:48.428Z,89.21
2022-10-11T23:43:17.577Z,89.88
2022-10-11T23:45:45.678Z,90.26
2022-10-11T23:48:13.547Z,89.87
2022-10-11T23:50:41.334Z,89.69
2022-10-11T23:53:09.076Z,90.85
2022-10-11T23:55:36.851Z,91.27
2022-10-11T23:58:04.630Z,90.80
